sensor_id;sensor_type;location;lat;lon;timestamp;P1;durP1;ratioP1;P2;durP2;ratioP2
64252;SDS011;50592;52.958;-7.470;2023-03-23T00:00:00;21.00;;;7.55;;
64252;SDS011;50592;52.958;-7.470;2023-03-23T00:02:36;17.75;;;5.00;;
64252;SDS011;50592;52.958;-7.470;2023-03-23T00:05:06;19.20;;;3.80;;
64252;SDS011;50592;52.958;-7.470;2023-03-23T00:07:36;14.13;;;4.65;;
64252;SDS011;50592;52.958;-7.470;2023-03-23T00:10:13;19.27;;;5.53;;
64252;SDS011;50592;52.958;-7.470;2023-03-23T00:12:43;16.48;;;5.93;;
64252;SDS011;50592;52.958;-7.470;2023-03-23T00:15:14;17.77;;;4.03;;
64252;SDS011;50592;52.958;-7.470;2023-03-23T00:17:45;20.02;;;4.63;;
64252;SDS011;50592;52.958;-7.470;2023-03-23T00:20:15;19.30;;;7.20;;
64252;SDS011;50592;52.958;-7.470;2023-03-23T00:22:45;23.92;;;6.07;;
64252;SDS011;50592;52.958;-7.470;2023-03-23T00:25:14;25.65;;;8.45;;
64252;SDS011;50592;52.958;-7.470;2023-03-23T00:27:44;20.85;;;5.57;;
64252;SDS011;50592;52.958;-7.470;2023-03-23T00:30:14;22.48;;;4.85;;
64252;SDS011;50592;52.958;-7.470;2023-03-23T00:32:44;25.58;;;4.70;;
64252;SDS011;50592;52.958;-7.470;2023-03-23T00:35:14;16.17;;;3.22;;
64252;SDS011;50592;52.958;-7.470;2023-03-23T00:37:44;13.82;;;2.90;;
64252;SDS011;50592;52.958;-7.470;2023-03-23T00:40:14;19.23;;;3.97;;
64252;SDS011;50592;52.958;-7.470;2023-03-23T00:42:41;16.80;;;3.35;;
64252;SDS011;50592;52.958;-7.470;2023-03-23T00:45:12;14.50;;;2.58;;
64252;SDS011;50592;52.958;-7.470;2023-03-23T00:47:39;8.27;;;1.73;;
64252;SDS011;50592;52.958;-7.470;2023-03-23T00:50:09;8.13;;;2.20;;
64252;SDS011;50592;52.958;-7.470;2023-03-23T00:52:35;7.78;;;1.52;;
64252;SDS011;50592;52.958;-7.470;2023-03-23T00:55:06;8.02;;;1.42;;
64252;SDS011;50592;52.958;-7.470;2023-03-23T00:57:36;7.80;;;1.23;;
64252;SDS011;50592;52.958;-7.470;2023-03-23T01:00:06;5.72;;;1.02;;
64252;SDS011;50592;52.958;-7.470;2023-03-23T01:02:39;5.03;;;0.90;;
64252;SDS011;50592;52.958;-7.470;2023-03-23T01:05:06;4.82;;;0.75;;
64252;SDS011;50592;52.958;-7.470;2023-03-23T01:07:35;3.70;;;0.80;;
64252;SDS011;50592;52.958;-7.470;2023-03-23T01:10:03;5.80;;;0.70;;
64252;SDS011;50592;52.958;-7.470;2023-03-23T01:12:33;7.03;;;1.00;;
64252;SDS011;50592;52.958;-7.470;2023-03-23T01:15:04;3.38;;;0.75;;
64252;SDS011;50592;52.958;-7.470;2023-03-23T01:17:35;3.95;;;0.60;;
64252;SDS011;50592;52.958;-7.470;2023-03-23T01:20:05;5.07;;;0.88;;
64252;SDS011;50592;52.958;-7.470;2023-03-23T01:22:32;5.32;;;1.55;;
64252;SDS011;50592;52.958;-7.470;2023-03-23T01:25:02;5.10;;;0.82;;
64252;SDS011;50592;52.958;-7.470;2023-03-23T01:27:32;7.28;;;0.98;;
64252;SDS011;50592;52.958;-7.470;2023-03-23T01:30:03;10.95;;;1.42;;
64252;SDS011;50592;52.958;-7.470;2023-03-23T01:32:34;3.65;;;0.85;;
64252;SDS011;50592;52.958;-7.470;2023-03-23T01:35:05;3.40;;;0.50;;
64252;SDS011;50592;52.958;-7.470;2023-03-23T01:37:35;3.85;;;0.77;;
64252;SDS011;50592;52.958;-7.470;2023-03-23T01:40:05;8.48;;;0.80;;
64252;SDS011;50592;52.958;-7.470;2023-03-23T01:42:35;2.63;;;0.70;;
64252;SDS011;50592;52.958;-7.470;2023-03-23T01:47:49;5.90;;;0.68;;
64252;SDS011;50592;52.958;-7.470;2023-03-23T01:50:25;5.68;;;0.73;;
64252;SDS011;50592;52.958;-7.470;2023-03-23T01:52:57;4.05;;;0.80;;
64252;SDS011;50592;52.958;-7.470;2023-03-23T01:55:30;3.83;;;0.70;;
64252;SDS011;50592;52.958;-7.470;2023-03-23T01:58:00;5.10;;;0.90;;
64252;SDS011;50592;52.958;-7.470;2023-03-23T02:00:30;2.33;;;0.60;;
64252;SDS011;50592;52.958;-7.470;2023-03-23T02:03:01;6.63;;;1.02;;
64252;SDS011;50592;52.958;-7.470;2023-03-23T02:05:38;5.35;;;0.65;;
64252;SDS011;50592;52.958;-7.470;2023-03-23T02:08:15;4.05;;;0.60;;
64252;SDS011;50592;52.958;-7.470;2023-03-23T02:10:47;4.93;;;0.52;;
64252;SDS011;50592;52.958;-7.470;2023-03-23T02:13:17;2.67;;;0.40;;
64252;SDS011;50592;52.958;-7.470;2023-03-23T02:15:50;6.68;;;1.17;;
64252;SDS011;50592;52.958;-7.470;2023-03-23T02:18:31;8.52;;;1.10;;
64252;SDS011;50592;52.958;-7.470;2023-03-23T02:30:19;6.20;;;1.25;;
64252;SDS011;50592;52.958;-7.470;2023-03-23T02:41:00;8.00;;;2.22;;
64252;SDS011;50592;52.958;-7.470;2023-03-23T02:43:30;8.73;;;1.23;;
64252;SDS011;50592;52.958;-7.470;2023-03-23T02:46:06;10.25;;;1.20;;
64252;SDS011;50592;52.958;-7.470;2023-03-23T02:48:36;9.90;;;1.25;;
64252;SDS011;50592;52.958;-7.470;2023-03-23T02:51:09;11.75;;;1.27;;
64252;SDS011;50592;52.958;-7.470;2023-03-23T02:53:42;9.32;;;1.20;;
64252;SDS011;50592;52.958;-7.470;2023-03-23T02:56:11;8.68;;;1.33;;
64252;SDS011;50592;52.958;-7.470;2023-03-23T02:58:43;7.63;;;1.55;;
64252;SDS011;50592;52.958;-7.470;2023-03-23T03:01:47;6.82;;;1.17;;
64252;SDS011;50592;52.958;-7.470;2023-03-23T03:04:07;14.68;;;1.73;;
64252;SDS011;50592;52.958;-7.470;2023-03-23T03:09:53;6.65;;;0.90;;
64252;SDS011;50592;52.958;-7.470;2023-03-23T03:12:40;6.70;;;1.23;;
64252;SDS011;50592;52.958;-7.470;2023-03-23T03:17:58;10.07;;;1.88;;
64252;SDS011;50592;52.958;-7.470;2023-03-23T03:20:47;7.03;;;1.20;;
64252;SDS011;50592;52.958;-7.470;2023-03-23T03:23:23;12.75;;;1.40;;
64252;SDS011;50592;52.958;-7.470;2023-03-23T03:25:57;10.00;;;1.63;;
64252;SDS011;50592;52.958;-7.470;2023-03-23T03:28:41;8.30;;;1.85;;
64252;SDS011;50592;52.958;-7.470;2023-03-23T03:31:09;7.22;;;1.00;;
64252;SDS011;50592;52.958;-7.470;2023-03-23T03:33:39;6.43;;;0.90;;
64252;SDS011;50592;52.958;-7.470;2023-03-23T03:36:07;9.75;;;1.60;;
64252;SDS011;50592;52.958;-7.470;2023-03-23T03:38:46;11.40;;;1.27;;
64252;SDS011;50592;52.958;-7.470;2023-03-23T03:41:18;5.32;;;1.10;;
64252;SDS011;50592;52.958;-7.470;2023-03-23T03:43:50;6.68;;;1.08;;
64252;SDS011;50592;52.958;-7.470;2023-03-23T03:46:19;11.10;;;2.15;;
64252;SDS011;50592;52.958;-7.470;2023-03-23T03:48:49;7.63;;;1.33;;
64252;SDS011;50592;52.958;-7.470;2023-03-23T03:51:22;8.15;;;1.27;;
64252;SDS011;50592;52.958;-7.470;2023-03-23T03:53:54;7.22;;;1.20;;
64252;SDS011;50592;52.958;-7.470;2023-03-23T03:56:24;10.73;;;1.25;;
64252;SDS011;50592;52.958;-7.470;2023-03-23T03:59:09;9.38;;;1.50;;
64252;SDS011;50592;52.958;-7.470;2023-03-23T04:01:56;10.65;;;1.23;;
64252;SDS011;50592;52.958;-7.470;2023-03-23T04:04:26;8.68;;;1.30;;
64252;SDS011;50592;52.958;-7.470;2023-03-23T04:06:53;7.70;;;1.20;;
64252;SDS011;50592;52.958;-7.470;2023-03-23T04:09:21;10.60;;;1.45;;
64252;SDS011;50592;52.958;-7.470;2023-03-23T04:11:48;9.38;;;1.00;;
64252;SDS011;50592;52.958;-7.470;2023-03-23T04:14:41;7.45;;;1.33;;
64252;SDS011;50592;52.958;-7.470;2023-03-23T04:17:08;8.35;;;1.58;;
64252;SDS011;50592;52.958;-7.470;2023-03-23T04:19:37;11.13;;;2.40;;
64252;SDS011;50592;52.958;-7.470;2023-03-23T04:22:05;11.35;;;1.42;;
64252;SDS011;50592;52.958;-7.470;2023-03-23T04:24:36;12.35;;;1.63;;
64252;SDS011;50592;52.958;-7.470;2023-03-23T04:27:08;7.85;;;1.23;;
64252;SDS011;50592;52.958;-7.470;2023-03-23T04:29:35;9.55;;;1.40;;
64252;SDS011;50592;52.958;-7.470;2023-03-23T04:32:28;8.25;;;1.10;;
64252;SDS011;50592;52.958;-7.470;2023-03-23T04:34:58;10.35;;;1.42;;
64252;SDS011;50592;52.958;-7.470;2023-03-23T04:37:32;12.35;;;1.38;;
64252;SDS011;50592;52.958;-7.470;2023-03-23T04:40:01;7.45;;;1.13;;
64252;SDS011;50592;52.958;-7.470;2023-03-23T04:42:33;11.55;;;1.02;;
64252;SDS011;50592;52.958;-7.470;2023-03-23T04:45:24;7.32;;;1.17;;
64252;SDS011;50592;52.958;-7.470;2023-03-23T04:47:54;8.88;;;1.13;;
64252;SDS011;50592;52.958;-7.470;2023-03-23T04:50:37;11.50;;;1.85;;
64252;SDS011;50592;52.958;-7.470;2023-03-23T04:53:14;8.30;;;1.02;;
64252;SDS011;50592;52.958;-7.470;2023-03-23T04:55:46;12.85;;;1.13;;
64252;SDS011;50592;52.958;-7.470;2023-03-23T04:58:19;11.95;;;1.77;;
64252;SDS011;50592;52.958;-7.470;2023-03-23T05:01:05;14.15;;;1.58;;
64252;SDS011;50592;52.958;-7.470;2023-03-23T05:03:36;8.38;;;1.55;;
64252;SDS011;50592;52.958;-7.470;2023-03-23T05:06:07;11.07;;;1.35;;
64252;SDS011;50592;52.958;-7.470;2023-03-23T05:08:37;8.23;;;1.17;;
64252;SDS011;50592;52.958;-7.470;2023-03-23T05:11:08;8.20;;;1.40;;
64252;SDS011;50592;52.958;-7.470;2023-03-23T05:13:41;7.18;;;1.02;;
64252;SDS011;50592;52.958;-7.470;2023-03-23T05:16:08;13.15;;;1.58;;
64252;SDS011;50592;52.958;-7.470;2023-03-23T05:18:39;2.65;;;0.70;;
64252;SDS011;50592;52.958;-7.470;2023-03-23T05:21:09;11.63;;;1.25;;
64252;SDS011;50592;52.958;-7.470;2023-03-23T05:23:42;7.18;;;0.98;;
64252;SDS011;50592;52.958;-7.470;2023-03-23T05:26:17;7.32;;;0.52;;
64252;SDS011;50592;52.958;-7.470;2023-03-23T05:28:47;9.82;;;1.50;;
64252;SDS011;50592;52.958;-7.470;2023-03-23T05:31:24;7.68;;;0.98;;
64252;SDS011;50592;52.958;-7.470;2023-03-23T05:33:52;4.25;;;0.68;;
64252;SDS011;50592;52.958;-7.470;2023-03-23T05:36:28;3.63;;;0.63;;
64252;SDS011;50592;52.958;-7.470;2023-03-23T05:39:06;6.13;;;0.98;;
64252;SDS011;50592;52.958;-7.470;2023-03-23T05:42:02;7.53;;;1.23;;
64252;SDS011;50592;52.958;-7.470;2023-03-23T05:44:56;8.40;;;1.75;;
64252;SDS011;50592;52.958;-7.470;2023-03-23T05:47:27;8.05;;;0.93;;
64252;SDS011;50592;52.958;-7.470;2023-03-23T05:52:31;8.80;;;1.17;;
64252;SDS011;50592;52.958;-7.470;2023-03-23T05:55:02;9.20;;;2.65;;
64252;SDS011;50592;52.958;-7.470;2023-03-23T05:57:35;13.82;;;1.65;;
64252;SDS011;50592;52.958;-7.470;2023-03-23T06:00:06;7.60;;;2.38;;
64252;SDS011;50592;52.958;-7.470;2023-03-23T06:02:45;13.27;;;1.98;;
64252;SDS011;50592;52.958;-7.470;2023-03-23T06:05:24;14.02;;;1.80;;
64252;SDS011;50592;52.958;-7.470;2023-03-23T06:07:54;19.65;;;2.08;;
64252;SDS011;50592;52.958;-7.470;2023-03-23T06:10:23;14.30;;;1.88;;
64252;SDS011;50592;52.958;-7.470;2023-03-23T06:12:58;15.23;;;2.20;;
64252;SDS011;50592;52.958;-7.470;2023-03-23T06:15:39;10.00;;;1.83;;
64252;SDS011;50592;52.958;-7.470;2023-03-23T06:18:06;19.88;;;2.35;;
64252;SDS011;50592;52.958;-7.470;2023-03-23T06:20:43;16.30;;;2.50;;
64252;SDS011;50592;52.958;-7.470;2023-03-23T06:23:21;16.85;;;3.15;;
64252;SDS011;50592;52.958;-7.470;2023-03-23T06:25:48;12.77;;;1.40;;
64252;SDS011;50592;52.958;-7.470;2023-03-23T06:28:18;12.07;;;2.58;;
64252;SDS011;50592;52.958;-7.470;2023-03-23T06:30:50;15.82;;;1.92;;
64252;SDS011;50592;52.958;-7.470;2023-03-23T06:33:21;25.70;;;2.40;;
64252;SDS011;50592;52.958;-7.470;2023-03-23T06:36:10;13.23;;;2.28;;
64252;SDS011;50592;52.958;-7.470;2023-03-23T06:38:59;15.60;;;2.90;;
64252;SDS011;50592;52.958;-7.470;2023-03-23T06:41:43;12.30;;;2.25;;
64252;SDS011;50592;52.958;-7.470;2023-03-23T06:44:09;14.35;;;2.08;;
64252;SDS011;50592;52.958;-7.470;2023-03-23T06:46:41;23.23;;;2.90;;
64252;SDS011;50592;52.958;-7.470;2023-03-23T06:49:31;20.70;;;2.20;;
64252;SDS011;50592;52.958;-7.470;2023-03-23T06:52:10;12.35;;;2.35;;
64252;SDS011;50592;52.958;-7.470;2023-03-23T06:54:37;14.20;;;2.17;;
64252;SDS011;50592;52.958;-7.470;2023-03-23T06:57:07;27.00;;;3.42;;
64252;SDS011;50592;52.958;-7.470;2023-03-23T06:59:37;20.95;;;2.95;;
64252;SDS011;50592;52.958;-7.470;2023-03-23T07:02:11;14.98;;;2.50;;
64252;SDS011;50592;52.958;-7.470;2023-03-23T07:04:44;13.93;;;2.42;;
64252;SDS011;50592;52.958;-7.470;2023-03-23T07:07:21;13.50;;;2.17;;
64252;SDS011;50592;52.958;-7.470;2023-03-23T07:09:54;13.52;;;1.80;;
64252;SDS011;50592;52.958;-7.470;2023-03-23T07:12:26;16.83;;;3.05;;
64252;SDS011;50592;52.958;-7.470;2023-03-23T07:14:57;23.25;;;2.85;;
64252;SDS011;50592;52.958;-7.470;2023-03-23T07:17:23;19.55;;;2.50;;
64252;SDS011;50592;52.958;-7.470;2023-03-23T07:20:11;13.30;;;1.88;;
64252;SDS011;50592;52.958;-7.470;2023-03-23T07:22:38;13.77;;;3.40;;
64252;SDS011;50592;52.958;-7.470;2023-03-23T07:25:17;14.40;;;2.30;;
64252;SDS011;50592;52.958;-7.470;2023-03-23T07:27:50;15.00;;;1.80;;
64252;SDS011;50592;52.958;-7.470;2023-03-23T07:30:17;12.88;;;2.25;;
64252;SDS011;50592;52.958;-7.470;2023-03-23T07:32:47;16.00;;;1.95;;
64252;SDS011;50592;52.958;-7.470;2023-03-23T07:35:14;11.93;;;2.13;;
64252;SDS011;50592;52.958;-7.470;2023-03-23T07:38:05;14.88;;;1.98;;
64252;SDS011;50592;52.958;-7.470;2023-03-23T07:40:34;17.55;;;1.90;;
64252;SDS011;50592;52.958;-7.470;2023-03-23T07:43:14;12.02;;;1.80;;
64252;SDS011;50592;52.958;-7.470;2023-03-23T07:46:03;7.75;;;1.30;;
64252;SDS011;50592;52.958;-7.470;2023-03-23T07:48:54;15.80;;;1.83;;
64252;SDS011;50592;52.958;-7.470;2023-03-23T07:53:58;8.25;;;1.05;;
64252;SDS011;50592;52.958;-7.470;2023-03-23T07:56:49;9.40;;;1.77;;
64252;SDS011;50592;52.958;-7.470;2023-03-23T07:59:20;12.75;;;2.20;;
64252;SDS011;50592;52.958;-7.470;2023-03-23T08:01:51;14.02;;;2.20;;
64252;SDS011;50592;52.958;-7.470;2023-03-23T08:04:35;13.77;;;1.90;;
64252;SDS011;50592;52.958;-7.470;2023-03-23T08:07:18;17.15;;;3.00;;
64252;SDS011;50592;52.958;-7.470;2023-03-23T08:09:47;12.43;;;2.10;;
64252;SDS011;50592;52.958;-7.470;2023-03-23T08:12:38;12.23;;;1.85;;
64252;SDS011;50592;52.958;-7.470;2023-03-23T08:15:25;14.25;;;2.42;;
64252;SDS011;50592;52.958;-7.470;2023-03-23T08:18:14;14.85;;;1.85;;
64252;SDS011;50592;52.958;-7.470;2023-03-23T08:21:02;21.27;;;2.30;;
64252;SDS011;50592;52.958;-7.470;2023-03-23T08:23:46;16.73;;;2.10;;
64252;SDS011;50592;52.958;-7.470;2023-03-23T08:29:34;17.33;;;2.40;;
64252;SDS011;50592;52.958;-7.470;2023-03-23T08:32:10;14.65;;;2.15;;
64252;SDS011;50592;52.958;-7.470;2023-03-23T08:35:03;14.15;;;2.25;;
64252;SDS011;50592;52.958;-7.470;2023-03-23T08:37:54;13.73;;;2.08;;
64252;SDS011;50592;52.958;-7.470;2023-03-23T08:41:03;8.30;;;1.67;;
64252;SDS011;50592;52.958;-7.470;2023-03-23T08:43:55;12.68;;;1.67;;
64252;SDS011;50592;52.958;-7.470;2023-03-23T08:46:46;15.00;;;1.98;;
64252;SDS011;50592;52.958;-7.470;2023-03-23T08:49:48;10.77;;;2.08;;
64252;SDS011;50592;52.958;-7.470;2023-03-23T08:52:39;15.13;;;1.77;;
64252;SDS011;50592;52.958;-7.470;2023-03-23T08:55:16;15.02;;;2.03;;
64252;SDS011;50592;52.958;-7.470;2023-03-23T08:58:05;13.73;;;1.50;;
64252;SDS011;50592;52.958;-7.470;2023-03-23T09:00:54;18.48;;;2.13;;
64252;SDS011;50592;52.958;-7.470;2023-03-23T09:03:29;11.45;;;1.92;;
64252;SDS011;50592;52.958;-7.470;2023-03-23T09:06:12;8.90;;;1.80;;
64252;SDS011;50592;52.958;-7.470;2023-03-23T09:08:44;11.38;;;1.95;;
64252;SDS011;50592;52.958;-7.470;2023-03-23T09:11:14;12.90;;;2.20;;
64252;SDS011;50592;52.958;-7.470;2023-03-23T09:13:44;10.25;;;1.65;;
64252;SDS011;50592;52.958;-7.470;2023-03-23T09:16:10;13.20;;;1.63;;
64252;SDS011;50592;52.958;-7.470;2023-03-23T09:18:40;11.98;;;2.25;;
64252;SDS011;50592;52.958;-7.470;2023-03-23T09:21:07;15.73;;;2.65;;
64252;SDS011;50592;52.958;-7.470;2023-03-23T09:23:36;16.33;;;2.58;;
64252;SDS011;50592;52.958;-7.470;2023-03-23T09:26:03;12.60;;;1.92;;
64252;SDS011;50592;52.958;-7.470;2023-03-23T09:28:32;10.38;;;2.17;;
64252;SDS011;50592;52.958;-7.470;2023-03-23T09:30:59;15.70;;;2.03;;
64252;SDS011;50592;52.958;-7.470;2023-03-23T09:33:28;14.68;;;1.98;;
64252;SDS011;50592;52.958;-7.470;2023-03-23T09:35:59;9.63;;;2.35;;
64252;SDS011;50592;52.958;-7.470;2023-03-23T09:38:29;8.45;;;1.65;;
64252;SDS011;50592;52.958;-7.470;2023-03-23T09:41:01;11.48;;;2.10;;
64252;SDS011;50592;52.958;-7.470;2023-03-23T09:49:32;15.10;;;1.92;;
64252;SDS011;50592;52.958;-7.470;2023-03-23T09:52:14;11.23;;;1.92;;
64252;SDS011;50592;52.958;-7.470;2023-03-23T09:54:44;9.18;;;1.48;;
64252;SDS011;50592;52.958;-7.470;2023-03-23T09:57:32;18.88;;;2.15;;
64252;SDS011;50592;52.958;-7.470;2023-03-23T10:00:10;15.75;;;2.85;;
64252;SDS011;50592;52.958;-7.470;2023-03-23T10:02:46;13.13;;;2.13;;
64252;SDS011;50592;52.958;-7.470;2023-03-23T10:05:32;11.48;;;1.55;;
64252;SDS011;50592;52.958;-7.470;2023-03-23T10:08:08;5.60;;;1.33;;
64252;SDS011;50592;52.958;-7.470;2023-03-23T10:15:55;9.63;;;1.83;;
64252;SDS011;50592;52.958;-7.470;2023-03-23T10:18:29;13.13;;;1.60;;
64252;SDS011;50592;52.958;-7.470;2023-03-23T10:21:06;10.35;;;1.83;;
64252;SDS011;50592;52.958;-7.470;2023-03-23T10:23:52;5.68;;;1.35;;
64252;SDS011;50592;52.958;-7.470;2023-03-23T10:29:24;6.68;;;1.10;;
64252;SDS011;50592;52.958;-7.470;2023-03-23T10:32:00;7.10;;;1.35;;
64252;SDS011;50592;52.958;-7.470;2023-03-23T10:34:45;5.00;;;1.00;;
64252;SDS011;50592;52.958;-7.470;2023-03-23T10:37:22;6.35;;;1.02;;
64252;SDS011;50592;52.958;-7.470;2023-03-23T10:39:59;5.63;;;0.80;;
64252;SDS011;50592;52.958;-7.470;2023-03-23T10:42:32;5.25;;;1.20;;
64252;SDS011;50592;52.958;-7.470;2023-03-23T10:45:21;6.53;;;0.90;;
64252;SDS011;50592;52.958;-7.470;2023-03-23T10:48:16;8.75;;;1.17;;
64252;SDS011;50592;52.958;-7.470;2023-03-23T10:50:54;8.90;;;0.85;;
64252;SDS011;50592;52.958;-7.470;2023-03-23T10:56:26;7.00;;;0.82;;
64252;SDS011;50592;52.958;-7.470;2023-03-23T10:58:58;4.90;;;0.85;;
64252;SDS011;50592;52.958;-7.470;2023-03-23T11:01:32;8.23;;;0.63;;
64252;SDS011;50592;52.958;-7.470;2023-03-23T11:04:10;6.15;;;1.00;;
64252;SDS011;50592;52.958;-7.470;2023-03-23T11:06:39;5.75;;;0.80;;
64252;SDS011;50592;52.958;-7.470;2023-03-23T11:09:15;4.80;;;0.93;;
64252;SDS011;50592;52.958;-7.470;2023-03-23T11:11:48;8.35;;;1.50;;
64252;SDS011;50592;52.958;-7.470;2023-03-23T11:17:02;9.18;;;1.70;;
64252;SDS011;50592;52.958;-7.470;2023-03-23T11:19:35;6.20;;;0.90;;
64252;SDS011;50592;52.958;-7.470;2023-03-23T11:22:08;7.93;;;1.90;;
64252;SDS011;50592;52.958;-7.470;2023-03-23T11:24:43;10.48;;;1.20;;
64252;SDS011;50592;52.958;-7.470;2023-03-23T11:27:17;12.32;;;1.88;;
64252;SDS011;50592;52.958;-7.470;2023-03-23T11:29:53;11.32;;;1.42;;
64252;SDS011;50592;52.958;-7.470;2023-03-23T11:32:29;10.80;;;1.30;;
64252;SDS011;50592;52.958;-7.470;2023-03-23T11:35:00;9.55;;;1.63;;
64252;SDS011;50592;52.958;-7.470;2023-03-23T11:37:42;9.75;;;1.95;;
64252;SDS011;50592;52.958;-7.470;2023-03-23T11:40:20;11.88;;;1.60;;
64252;SDS011;50592;52.958;-7.470;2023-03-23T11:43:00;8.63;;;1.67;;
64252;SDS011;50592;52.958;-7.470;2023-03-23T11:45:39;11.52;;;1.60;;
64252;SDS011;50592;52.958;-7.470;2023-03-23T11:48:21;9.55;;;1.77;;
64252;SDS011;50592;52.958;-7.470;2023-03-23T11:51:03;11.23;;;2.22;;
64252;SDS011;50592;52.958;-7.470;2023-03-23T11:56:45;7.43;;;1.30;;
64252;SDS011;50592;52.958;-7.470;2023-03-23T11:59:17;9.90;;;1.13;;
64252;SDS011;50592;52.958;-7.470;2023-03-23T12:04:46;13.23;;;1.92;;
64252;SDS011;50592;52.958;-7.470;2023-03-23T12:10:25;11.47;;;1.40;;
64252;SDS011;50592;52.958;-7.470;2023-03-23T12:27:50;8.73;;;1.33;;
64252;SDS011;50592;52.958;-7.470;2023-03-23T12:30:47;7.25;;;1.80;;
64252;SDS011;50592;52.958;-7.470;2023-03-23T12:53:32;11.48;;;1.60;;
64252;SDS011;50592;52.958;-7.470;2023-03-23T12:56:21;7.43;;;1.40;;
64252;SDS011;50592;52.958;-7.470;2023-03-23T12:58:59;10.90;;;1.95;;
64252;SDS011;50592;52.958;-7.470;2023-03-23T13:01:52;10.68;;;1.55;;
64252;SDS011;50592;52.958;-7.470;2023-03-23T13:04:30;12.50;;;1.92;;
64252;SDS011;50592;52.958;-7.470;2023-03-23T13:07:06;8.80;;;1.35;;
64252;SDS011;50592;52.958;-7.470;2023-03-23T13:12:17;5.93;;;1.27;;
64252;SDS011;50592;52.958;-7.470;2023-03-23T13:14:58;8.45;;;1.60;;
64252;SDS011;50592;52.958;-7.470;2023-03-23T13:22:58;13.18;;;1.25;;
64252;SDS011;50592;52.958;-7.470;2023-03-23T13:28:25;11.13;;;2.05;;
64252;SDS011;50592;52.958;-7.470;2023-03-23T13:31:00;13.27;;;2.28;;
64252;SDS011;50592;52.958;-7.470;2023-03-23T13:33:45;8.80;;;1.73;;
64252;SDS011;50592;52.958;-7.470;2023-03-23T13:36:25;13.15;;;1.92;;
64252;SDS011;50592;52.958;-7.470;2023-03-23T13:38:58;10.43;;;1.25;;
64252;SDS011;50592;52.958;-7.470;2023-03-23T13:41:27;6.32;;;0.93;;
64252;SDS011;50592;52.958;-7.470;2023-03-23T13:44:07;6.15;;;0.77;;
64252;SDS011;50592;52.958;-7.470;2023-03-23T13:46:56;7.07;;;1.35;;
64252;SDS011;50592;52.958;-7.470;2023-03-23T13:49:44;9.20;;;1.90;;
64252;SDS011;50592;52.958;-7.470;2023-03-23T13:52:25;6.93;;;0.80;;
64252;SDS011;50592;52.958;-7.470;2023-03-23T14:03:10;11.07;;;3.88;;
64252;SDS011;50592;52.958;-7.470;2023-03-23T14:05:43;6.95;;;1.63;;
64252;SDS011;50592;52.958;-7.470;2023-03-23T14:10:50;4.82;;;1.42;;
64252;SDS011;50592;52.958;-7.470;2023-03-23T14:16:00;8.00;;;1.58;;
64252;SDS011;50592;52.958;-7.470;2023-03-23T14:18:39;4.07;;;1.80;;
64252;SDS011;50592;52.958;-7.470;2023-03-23T14:21:15;4.32;;;1.25;;
64252;SDS011;50592;52.958;-7.470;2023-03-23T14:23:47;7.57;;;4.28;;
64252;SDS011;50592;52.958;-7.470;2023-03-23T14:26:17;5.15;;;2.60;;
64252;SDS011;50592;52.958;-7.470;2023-03-23T14:28:50;4.88;;;1.92;;
64252;SDS011;50592;52.958;-7.470;2023-03-23T14:31:20;2.47;;;0.75;;
64252;SDS011;50592;52.958;-7.470;2023-03-23T14:33:52;2.30;;;0.90;;
64252;SDS011;50592;52.958;-7.470;2023-03-23T14:36:25;5.80;;;2.47;;
64252;SDS011;50592;52.958;-7.470;2023-03-23T14:41:42;4.63;;;1.20;;
64252;SDS011;50592;52.958;-7.470;2023-03-23T14:44:12;5.10;;;0.90;;
64252;SDS011;50592;52.958;-7.470;2023-03-23T14:46:46;9.05;;;3.10;;
64252;SDS011;50592;52.958;-7.470;2023-03-23T14:49:17;4.25;;;1.40;;
64252;SDS011;50592;52.958;-7.470;2023-03-23T14:51:52;5.03;;;1.73;;
64252;SDS011;50592;52.958;-7.470;2023-03-23T14:54:25;5.97;;;3.40;;
64252;SDS011;50592;52.958;-7.470;2023-03-23T14:57:02;5.93;;;1.88;;
64252;SDS011;50592;52.958;-7.470;2023-03-23T14:59:43;7.22;;;4.13;;
64252;SDS011;50592;52.958;-7.470;2023-03-23T15:02:23;5.57;;;1.48;;
64252;SDS011;50592;52.958;-7.470;2023-03-23T15:04:59;4.93;;;2.10;;
64252;SDS011;50592;52.958;-7.470;2023-03-23T15:07:44;5.32;;;1.70;;
64252;SDS011;50592;52.958;-7.470;2023-03-23T15:10:19;7.65;;;1.23;;
64252;SDS011;50592;52.958;-7.470;2023-03-23T15:12:51;9.05;;;1.50;;
64252;SDS011;50592;52.958;-7.470;2023-03-23T15:15:33;5.03;;;1.33;;
64252;SDS011;50592;52.958;-7.470;2023-03-23T15:18:04;8.10;;;2.50;;
64252;SDS011;50592;52.958;-7.470;2023-03-23T15:20:47;4.20;;;1.25;;
64252;SDS011;50592;52.958;-7.470;2023-03-23T15:23:40;6.45;;;1.02;;
64252;SDS011;50592;52.958;-7.470;2023-03-23T15:26:17;5.93;;;1.80;;
64252;SDS011;50592;52.958;-7.470;2023-03-23T15:29:13;9.30;;;2.47;;
64252;SDS011;50592;52.958;-7.470;2023-03-23T15:31:49;7.80;;;3.63;;
64252;SDS011;50592;52.958;-7.470;2023-03-23T15:34:27;8.38;;;1.83;;
64252;SDS011;50592;52.958;-7.470;2023-03-23T15:36:58;6.18;;;1.60;;
64252;SDS011;50592;52.958;-7.470;2023-03-23T15:39:33;7.13;;;1.45;;
64252;SDS011;50592;52.958;-7.470;2023-03-23T15:42:04;6.50;;;1.55;;
64252;SDS011;50592;52.958;-7.470;2023-03-23T15:44:32;10.27;;;2.95;;
64252;SDS011;50592;52.958;-7.470;2023-03-23T15:47:14;12.98;;;4.22;;
64252;SDS011;50592;52.958;-7.470;2023-03-23T15:50:01;18.00;;;8.98;;
64252;SDS011;50592;52.958;-7.470;2023-03-23T15:52:41;26.48;;;16.13;;
64252;SDS011;50592;52.958;-7.470;2023-03-23T15:55:18;81.72;;;43.15;;
64252;SDS011;50592;52.958;-7.470;2023-03-23T15:57:52;57.63;;;31.60;;
64252;SDS011;50592;52.958;-7.470;2023-03-23T16:00:24;21.42;;;11.27;;
64252;SDS011;50592;52.958;-7.470;2023-03-23T16:02:57;13.65;;;7.53;;
64252;SDS011;50592;52.958;-7.470;2023-03-23T16:05:33;27.13;;;14.30;;
64252;SDS011;50592;52.958;-7.470;2023-03-23T16:08:01;12.05;;;4.43;;
64252;SDS011;50592;52.958;-7.470;2023-03-23T16:10:30;32.28;;;16.90;;
64252;SDS011;50592;52.958;-7.470;2023-03-23T16:12:57;16.65;;;7.28;;
64252;SDS011;50592;52.958;-7.470;2023-03-23T16:15:26;7.95;;;2.05;;
64252;SDS011;50592;52.958;-7.470;2023-03-23T16:17:52;8.48;;;2.90;;
64252;SDS011;50592;52.958;-7.470;2023-03-23T16:20:22;10.45;;;2.38;;
64252;SDS011;50592;52.958;-7.470;2023-03-23T16:22:50;10.23;;;1.77;;
64252;SDS011;50592;52.958;-7.470;2023-03-23T16:25:20;16.05;;;1.90;;
64252;SDS011;50592;52.958;-7.470;2023-03-23T16:27:50;13.20;;;4.28;;
64252;SDS011;50592;52.958;-7.470;2023-03-23T16:30:21;8.85;;;1.92;;
64252;SDS011;50592;52.958;-7.470;2023-03-23T16:32:53;19.95;;;8.15;;
64252;SDS011;50592;52.958;-7.470;2023-03-23T16:35:23;15.00;;;4.43;;
64252;SDS011;50592;52.958;-7.470;2023-03-23T16:37:54;15.95;;;5.30;;
64252;SDS011;50592;52.958;-7.470;2023-03-23T16:40:25;16.80;;;2.65;;
64252;SDS011;50592;52.958;-7.470;2023-03-23T16:42:55;14.10;;;4.05;;
64252;SDS011;50592;52.958;-7.470;2023-03-23T16:45:22;5.72;;;1.50;;
64252;SDS011;50592;52.958;-7.470;2023-03-23T16:47:53;12.88;;;3.08;;
64252;SDS011;50592;52.958;-7.470;2023-03-23T16:50:28;12.13;;;3.08;;
64252;SDS011;50592;52.958;-7.470;2023-03-23T16:52:59;7.80;;;2.42;;
64252;SDS011;50592;52.958;-7.470;2023-03-23T16:55:26;7.90;;;2.00;;
64252;SDS011;50592;52.958;-7.470;2023-03-23T16:57:55;14.18;;;4.30;;
64252;SDS011;50592;52.958;-7.470;2023-03-23T17:00:23;12.15;;;2.15;;
64252;SDS011;50592;52.958;-7.470;2023-03-23T17:02:53;12.55;;;3.45;;
64252;SDS011;50592;52.958;-7.470;2023-03-23T17:05:23;15.43;;;2.35;;
64252;SDS011;50592;52.958;-7.470;2023-03-23T17:07:55;16.00;;;2.75;;
64252;SDS011;50592;52.958;-7.470;2023-03-23T17:10:25;15.13;;;3.13;;
64252;SDS011;50592;52.958;-7.470;2023-03-23T17:12:55;16.20;;;3.70;;
64252;SDS011;50592;52.958;-7.470;2023-03-23T17:15:25;15.48;;;2.55;;
64252;SDS011;50592;52.958;-7.470;2023-03-23T17:17:55;13.48;;;3.47;;